sensor_id;sensor_type;location;lat;lon;timestamp;P1;durP1;ratioP1;P2;durP2;ratioP2
64235;SDS011;50564;47.402;9.740;2023-06-04T00:01:16;8.70;;;6.60;;
64235;SDS011;50564;47.402;9.740;2023-06-04T00:06:17;9.00;;;6.13;;
64235;SDS011;50564;47.402;9.740;2023-06-04T00:11:18;10.45;;;7.05;;
64235;SDS011;50564;47.402;9.740;2023-06-04T00:16:20;12.00;;;6.60;;
64235;SDS011;50564;47.402;9.740;2023-06-04T00:21:20;10.15;;;6.43;;
64235;SDS011;50564;47.402;9.740;2023-06-04T00:26:21;9.27;;;6.95;;
64235;SDS011;50564;47.402;9.740;2023-06-04T00:31:22;10.25;;;7.63;;
64235;SDS011;50564;47.402;9.740;2023-06-04T00:36:23;11.15;;;8.52;;
64235;SDS011;50564;47.402;9.740;2023-06-04T00:41:24;9.75;;;7.75;;
64235;SDS011;50564;47.402;9.740;2023-06-04T00:46:27;11.45;;;8.38;;
64235;SDS011;50564;47.402;9.740;2023-06-04T00:51:29;13.00;;;9.27;;
64235;SDS011;50564;47.402;9.740;2023-06-04T00:56:30;9.57;;;8.32;;
64235;SDS011;50564;47.402;9.740;2023-06-04T01:01:34;13.50;;;7.97;;
64235;SDS011;50564;47.402;9.740;2023-06-04T01:06:44;9.80;;;7.82;;
64235;SDS011;50564;47.402;9.740;2023-06-04T01:11:46;12.05;;;7.90;;
64235;SDS011;50564;47.402;9.740;2023-06-04T01:16:47;9.82;;;7.32;;
64235;SDS011;50564;47.402;9.740;2023-06-04T01:21:50;10.70;;;7.45;;
64235;SDS011;50564;47.402;9.740;2023-06-04T01:26:53;12.27;;;8.23;;
64235;SDS011;50564;47.402;9.740;2023-06-04T01:31:56;10.30;;;7.78;;
64235;SDS011;50564;47.402;9.740;2023-06-04T01:36:56;10.18;;;7.15;;
64235;SDS011;50564;47.402;9.740;2023-06-04T01:41:57;9.98;;;6.78;;
64235;SDS011;50564;47.402;9.740;2023-06-04T01:46:58;9.70;;;7.45;;
64235;SDS011;50564;47.402;9.740;2023-06-04T01:51:58;10.52;;;7.32;;
64235;SDS011;50564;47.402;9.740;2023-06-04T01:56:59;13.20;;;8.05;;
64235;SDS011;50564;47.402;9.740;2023-06-04T02:01:59;11.10;;;7.38;;
64235;SDS011;50564;47.402;9.740;2023-06-04T02:07:02;11.43;;;7.57;;
64235;SDS011;50564;47.402;9.740;2023-06-04T02:12:03;12.07;;;7.85;;
64235;SDS011;50564;47.402;9.740;2023-06-04T02:17:04;10.48;;;7.05;;
64235;SDS011;50564;47.402;9.740;2023-06-04T02:22:12;11.20;;;6.72;;
64235;SDS011;50564;47.402;9.740;2023-06-04T02:27:13;10.45;;;7.70;;
64235;SDS011;50564;47.402;9.740;2023-06-04T02:32:14;10.10;;;8.20;;
64235;SDS011;50564;47.402;9.740;2023-06-04T02:37:15;11.93;;;7.80;;
64235;SDS011;50564;47.402;9.740;2023-06-04T02:42:16;10.48;;;8.10;;
64235;SDS011;50564;47.402;9.740;2023-06-04T02:47:16;11.50;;;8.27;;
64235;SDS011;50564;47.402;9.740;2023-06-04T02:52:19;10.18;;;8.13;;
64235;SDS011;50564;47.402;9.740;2023-06-04T02:57:21;9.70;;;7.78;;
64235;SDS011;50564;47.402;9.740;2023-06-04T03:02:22;10.50;;;8.07;;
64235;SDS011;50564;47.402;9.740;2023-06-04T03:07:22;11.63;;;8.00;;
64235;SDS011;50564;47.402;9.740;2023-06-04T03:12:24;8.52;;;7.13;;
64235;SDS011;50564;47.402;9.740;2023-06-04T03:17:25;10.23;;;7.70;;
64235;SDS011;50564;47.402;9.740;2023-06-04T03:22:26;11.35;;;7.93;;
64235;SDS011;50564;47.402;9.740;2023-06-04T03:27:27;10.00;;;7.47;;
64235;SDS011;50564;47.402;9.740;2023-06-04T03:32:28;9.55;;;7.57;;
64235;SDS011;50564;47.402;9.740;2023-06-04T03:37:28;9.00;;;7.15;;
64235;SDS011;50564;47.402;9.740;2023-06-04T03:42:29;10.70;;;7.88;;
64235;SDS011;50564;47.402;9.740;2023-06-04T03:47:30;9.25;;;7.13;;
64235;SDS011;50564;47.402;9.740;2023-06-04T03:52:32;10.43;;;7.80;;
64235;SDS011;50564;47.402;9.740;2023-06-04T03:57:34;9.18;;;6.93;;
64235;SDS011;50564;47.402;9.740;2023-06-04T04:02:36;10.85;;;7.57;;
64235;SDS011;50564;47.402;9.740;2023-06-04T04:07:37;10.60;;;7.03;;
64235;SDS011;50564;47.402;9.740;2023-06-04T04:12:39;9.52;;;7.00;;
64235;SDS011;50564;47.402;9.740;2023-06-04T04:17:41;9.55;;;6.80;;
64235;SDS011;50564;47.402;9.740;2023-06-04T04:22:43;8.88;;;6.68;;
64235;SDS011;50564;47.402;9.740;2023-06-04T04:27:46;9.23;;;6.45;;
64235;SDS011;50564;47.402;9.740;2023-06-04T04:32:49;10.75;;;6.72;;
64235;SDS011;50564;47.402;9.740;2023-06-04T04:37:54;10.13;;;6.70;;
64235;SDS011;50564;47.402;9.740;2023-06-04T04:42:55;8.70;;;6.72;;
64235;SDS011;50564;47.402;9.740;2023-06-04T04:47:57;8.43;;;6.95;;
64235;SDS011;50564;47.402;9.740;2023-06-04T04:52:58;9.95;;;6.57;;
64235;SDS011;50564;47.402;9.740;2023-06-04T04:57:59;8.25;;;6.00;;
64235;SDS011;50564;47.402;9.740;2023-06-04T05:03:01;9.00;;;6.63;;
64235;SDS011;50564;47.402;9.740;2023-06-04T05:08:02;9.43;;;6.63;;
64235;SDS011;50564;47.402;9.740;2023-06-04T05:13:07;10.00;;;8.02;;
64235;SDS011;50564;47.402;9.740;2023-06-04T05:18:16;9.60;;;7.63;;
64235;SDS011;50564;47.402;9.740;2023-06-04T05:23:17;14.23;;;9.82;;
64235;SDS011;50564;47.402;9.740;2023-06-04T05:28:21;16.00;;;11.18;;
64235;SDS011;50564;47.402;9.740;2023-06-04T05:33:26;12.70;;;8.82;;
64235;SDS011;50564;47.402;9.740;2023-06-04T05:38:32;11.18;;;9.05;;
64235;SDS011;50564;47.402;9.740;2023-06-04T05:43:38;10.93;;;8.05;;
64235;SDS011;50564;47.402;9.740;2023-06-04T05:48:40;12.80;;;9.23;;
64235;SDS011;50564;47.402;9.740;2023-06-04T05:53:41;14.32;;;10.25;;
64235;SDS011;50564;47.402;9.740;2023-06-04T05:58:42;9.93;;;7.88;;
64235;SDS011;50564;47.402;9.740;2023-06-04T06:03:45;12.02;;;8.73;;
64235;SDS011;50564;47.402;9.740;2023-06-04T06:08:46;11.80;;;7.75;;
64235;SDS011;50564;47.402;9.740;2023-06-04T06:13:47;9.82;;;7.28;;
64235;SDS011;50564;47.402;9.740;2023-06-04T06:18:49;11.88;;;7.90;;
64235;SDS011;50564;47.402;9.740;2023-06-04T06:23:51;10.13;;;7.35;;
64235;SDS011;50564;47.402;9.740;2023-06-04T06:28:52;11.65;;;7.72;;
64235;SDS011;50564;47.402;9.740;2023-06-04T06:33:53;7.95;;;5.75;;
64235;SDS011;50564;47.402;9.740;2023-06-04T06:38:53;12.35;;;6.80;;
64235;SDS011;50564;47.402;9.740;2023-06-04T06:43:55;9.05;;;6.47;;
64235;SDS011;50564;47.402;9.740;2023-06-04T06:48:55;8.50;;;6.63;;
64235;SDS011;50564;47.402;9.740;2023-06-04T06:53:57;8.13;;;6.35;;
64235;SDS011;50564;47.402;9.740;2023-06-04T06:58:57;9.02;;;7.03;;
64235;SDS011;50564;47.402;9.740;2023-06-04T07:03:58;8.75;;;6.10;;
64235;SDS011;50564;47.402;9.740;2023-06-04T07:08:59;8.65;;;6.18;;
64235;SDS011;50564;47.402;9.740;2023-06-04T07:14:00;6.50;;;5.00;;
64235;SDS011;50564;47.402;9.740;2023-06-04T07:19:02;11.23;;;8.75;;
64235;SDS011;50564;47.402;9.740;2023-06-04T07:24:03;9.13;;;6.22;;
64235;SDS011;50564;47.402;9.740;2023-06-04T07:29:03;7.60;;;5.15;;
64235;SDS011;50564;47.402;9.740;2023-06-04T07:34:04;8.55;;;5.38;;
64235;SDS011;50564;47.402;9.740;2023-06-04T07:39:05;11.07;;;6.95;;
64235;SDS011;50564;47.402;9.740;2023-06-04T07:44:05;10.35;;;7.50;;
64235;SDS011;50564;47.402;9.740;2023-06-04T07:49:06;10.98;;;7.10;;
64235;SDS011;50564;47.402;9.740;2023-06-04T07:54:07;12.07;;;7.53;;
64235;SDS011;50564;47.402;9.740;2023-06-04T07:59:07;11.05;;;7.78;;
64235;SDS011;50564;47.402;9.740;2023-06-04T08:04:08;10.50;;;7.65;;
64235;SDS011;50564;47.402;9.740;2023-06-04T08:09:09;11.57;;;7.55;;
64235;SDS011;50564;47.402;9.740;2023-06-04T08:14:10;10.77;;;8.15;;
64235;SDS011;50564;47.402;9.740;2023-06-04T08:19:12;11.48;;;7.90;;
64235;SDS011;50564;47.402;9.740;2023-06-04T08:24:13;8.07;;;7.05;;
64235;SDS011;50564;47.402;9.740;2023-06-04T08:29:14;10.98;;;7.85;;
64235;SDS011;50564;47.402;9.740;2023-06-04T08:34:15;9.35;;;7.20;;
64235;SDS011;50564;47.402;9.740;2023-06-04T08:39:15;10.07;;;6.95;;
64235;SDS011;50564;47.402;9.740;2023-06-04T08:44:16;9.80;;;7.53;;
64235;SDS011;50564;47.402;9.740;2023-06-04T08:49:17;14.40;;;9.02;;
64235;SDS011;50564;47.402;9.740;2023-06-04T08:54:21;10.50;;;7.38;;
64235;SDS011;50564;47.402;9.740;2023-06-04T08:59:21;9.98;;;7.85;;
64235;SDS011;50564;47.402;9.740;2023-06-04T09:04:22;10.15;;;7.10;;
64235;SDS011;50564;47.402;9.740;2023-06-04T09:09:23;11.90;;;7.75;;
64235;SDS011;50564;47.402;9.740;2023-06-04T09:14:24;10.25;;;7.82;;
64235;SDS011;50564;47.402;9.740;2023-06-04T09:19:25;10.80;;;7.45;;
64235;SDS011;50564;47.402;9.740;2023-06-04T09:24:42;11.93;;;7.90;;
64235;SDS011;50564;47.402;9.740;2023-06-04T09:29:50;10.68;;;7.70;;
64235;SDS011;50564;47.402;9.740;2023-06-04T09:34:52;11.27;;;7.85;;
64235;SDS011;50564;47.402;9.740;2023-06-04T09:39:53;12.68;;;8.75;;
64235;SDS011;50564;47.402;9.740;2023-06-04T09:44:55;17.30;;;10.30;;
64235;SDS011;50564;47.402;9.740;2023-06-04T09:49:55;11.15;;;7.80;;
64235;SDS011;50564;47.402;9.740;2023-06-04T09:54:56;11.30;;;8.27;;
64235;SDS011;50564;47.402;9.740;2023-06-04T09:59:56;13.27;;;8.07;;
64235;SDS011;50564;47.402;9.740;2023-06-04T10:04:57;11.13;;;8.80;;
64235;SDS011;50564;47.402;9.740;2023-06-04T10:09:59;10.27;;;7.25;;
64235;SDS011;50564;47.402;9.740;2023-06-04T10:15:02;9.88;;;8.15;;
64235;SDS011;50564;47.402;9.740;2023-06-04T10:20:06;12.87;;;8.87;;
64235;SDS011;50564;47.402;9.740;2023-06-04T10:25:09;12.35;;;8.70;;
64235;SDS011;50564;47.402;9.740;2023-06-04T10:30:10;12.20;;;7.80;;
64235;SDS011;50564;47.402;9.740;2023-06-04T10:35:12;11.85;;;8.30;;
64235;SDS011;50564;47.402;9.740;2023-06-04T10:40:14;14.02;;;8.38;;
64235;SDS011;50564;47.402;9.740;2023-06-04T10:45:15;12.13;;;7.57;;
64235;SDS011;50564;47.402;9.740;2023-06-04T10:50:16;10.38;;;6.25;;
64235;SDS011;50564;47.402;9.740;2023-06-04T10:55:17;9.02;;;6.55;;
64235;SDS011;50564;47.402;9.740;2023-06-04T11:00:19;8.77;;;6.50;;
64235;SDS011;50564;47.402;9.740;2023-06-04T11:05:20;12.57;;;7.53;;
64235;SDS011;50564;47.402;9.740;2023-06-04T11:10:29;8.70;;;6.63;;
64235;SDS011;50564;47.402;9.740;2023-06-04T11:20:39;8.63;;;5.60;;
64235;SDS011;50564;47.402;9.740;2023-06-04T11:25:41;10.43;;;6.60;;
64235;SDS011;50564;47.402;9.740;2023-06-04T11:35:58;7.68;;;5.43;;
64235;SDS011;50564;47.402;9.740;2023-06-04T11:40:59;9.40;;;5.72;;
64235;SDS011;50564;47.402;9.740;2023-06-04T11:46:04;8.43;;;5.00;;
64235;SDS011;50564;47.402;9.740;2023-06-04T11:51:08;8.63;;;5.40;;
64235;SDS011;50564;47.402;9.740;2023-06-04T11:56:09;7.35;;;5.22;;
64235;SDS011;50564;47.402;9.740;2023-06-04T12:01:11;8.15;;;5.57;;
64235;SDS011;50564;47.402;9.740;2023-06-04T12:06:14;8.20;;;5.68;;
64235;SDS011;50564;47.402;9.740;2023-06-04T12:16:30;10.63;;;6.32;;
64235;SDS011;50564;47.402;9.740;2023-06-04T12:21:31;8.02;;;5.88;;
64235;SDS011;50564;47.402;9.740;2023-06-04T12:26:31;10.07;;;5.45;;
64235;SDS011;50564;47.402;9.740;2023-06-04T12:31:38;7.38;;;5.50;;
64235;SDS011;50564;47.402;9.740;2023-06-04T12:36:42;8.57;;;5.70;;
64235;SDS011;50564;47.402;9.740;2023-06-04T12:41:46;6.82;;;5.03;;
64235;SDS011;50564;47.402;9.740;2023-06-04T12:46:47;7.50;;;5.10;;
64235;SDS011;50564;47.402;9.740;2023-06-04T12:51:47;7.90;;;5.25;;
64235;SDS011;50564;47.402;9.740;2023-06-04T12:56:48;7.60;;;5.28;;
64235;SDS011;50564;47.402;9.740;2023-06-04T13:01:49;9.07;;;5.63;;
64235;SDS011;50564;47.402;9.740;2023-06-04T13:06:50;7.68;;;5.32;;
64235;SDS011;50564;47.402;9.740;2023-06-04T13:11:53;7.60;;;5.38;;
64235;SDS011;50564;47.402;9.740;2023-06-04T13:16:54;8.23;;;4.75;;
64235;SDS011;50564;47.402;9.740;2023-06-04T13:21:54;7.95;;;5.05;;
64235;SDS011;50564;47.402;9.740;2023-06-04T13:26:55;9.52;;;5.28;;
64235;SDS011;50564;47.402;9.740;2023-06-04T13:31:56;10.45;;;5.38;;
64235;SDS011;50564;47.402;9.740;2023-06-04T13:36:57;10.85;;;6.68;;
64235;SDS011;50564;47.402;9.740;2023-06-04T13:41:57;9.95;;;5.45;;
64235;SDS011;50564;47.402;9.740;2023-06-04T13:46:58;7.35;;;4.78;;
64235;SDS011;50564;47.402;9.740;2023-06-04T13:51:59;5.97;;;5.03;;
64235;SDS011;50564;47.402;9.740;2023-06-04T13:57:02;6.60;;;5.22;;
64235;SDS011;50564;47.402;9.740;2023-06-04T14:02:06;10.50;;;5.35;;
64235;SDS011;50564;47.402;9.740;2023-06-04T14:07:07;6.53;;;5.20;;
64235;SDS011;50564;47.402;9.740;2023-06-04T14:12:08;7.90;;;4.95;;
64235;SDS011;50564;47.402;9.740;2023-06-04T14:17:09;11.07;;;5.05;;
64235;SDS011;50564;47.402;9.740;2023-06-04T14:22:10;8.45;;;4.25;;
64235;SDS011;50564;47.402;9.740;2023-06-04T14:27:12;7.95;;;5.30;;
64235;SDS011;50564;47.402;9.740;2023-06-04T14:32:13;7.05;;;4.47;;
64235;SDS011;50564;47.402;9.740;2023-06-04T14:37:13;9.32;;;4.45;;
64235;SDS011;50564;47.402;9.740;2023-06-04T14:42:15;9.45;;;3.38;;
64235;SDS011;50564;47.402;9.740;2023-06-04T14:47:16;6.30;;;3.83;;
64235;SDS011;50564;47.402;9.740;2023-06-04T14:52:16;5.22;;;3.00;;
64235;SDS011;50564;47.402;9.740;2023-06-04T14:57:17;5.30;;;3.65;;
64235;SDS011;50564;47.402;9.740;2023-06-04T15:02:19;5.38;;;3.80;;
64235;SDS011;50564;47.402;9.740;2023-06-04T15:07:21;5.55;;;3.90;;
64235;SDS011;50564;47.402;9.740;2023-06-04T15:12:22;10.77;;;3.40;;
64235;SDS011;50564;47.402;9.740;2023-06-04T15:17:23;7.50;;;3.78;;
64235;SDS011;50564;47.402;9.740;2023-06-04T15:22:24;6.07;;;3.13;;
64235;SDS011;50564;47.402;9.740;2023-06-04T15:27:26;4.80;;;3.13;;
64235;SDS011;50564;47.402;9.740;2023-06-04T15:32:26;4.97;;;3.30;;
64235;SDS011;50564;47.402;9.740;2023-06-04T15:37:27;6.72;;;3.10;;
64235;SDS011;50564;47.402;9.740;2023-06-04T15:42:27;5.57;;;3.13;;
64235;SDS011;50564;47.402;9.740;2023-06-04T15:47:28;7.65;;;3.30;;
64235;SDS011;50564;47.402;9.740;2023-06-04T15:52:29;6.28;;;3.70;;
64235;SDS011;50564;47.402;9.740;2023-06-04T15:57:29;6.78;;;3.22;;
64235;SDS011;50564;47.402;9.740;2023-06-04T16:02:31;9.02;;;3.47;;
64235;SDS011;50564;47.402;9.740;2023-06-04T16:07:32;7.57;;;3.10;;
64235;SDS011;50564;47.402;9.740;2023-06-04T16:12:33;5.80;;;3.50;;
64235;SDS011;50564;47.402;9.740;2023-06-04T16:17:33;6.13;;;2.95;;
64235;SDS011;50564;47.402;9.740;2023-06-04T16:22:34;6.93;;;3.13;;
64235;SDS011;50564;47.402;9.740;2023-06-04T16:27:35;5.97;;;3.20;;
64235;SDS011;50564;47.402;9.740;2023-06-04T16:32:36;3.38;;;2.60;;
64235;SDS011;50564;47.402;9.740;2023-06-04T16:37:36;3.75;;;2.80;;
64235;SDS011;50564;47.402;9.740;2023-06-04T16:42:37;8.23;;;3.15;;
64235;SDS011;50564;47.402;9.740;2023-06-04T16:47:38;4.78;;;2.67;;
64235;SDS011;50564;47.402;9.740;2023-06-04T16:52:40;4.95;;;2.70;;
64235;SDS011;50564;47.402;9.740;2023-06-04T16:57:41;3.45;;;2.35;;
64235;SDS011;50564;47.402;9.740;2023-06-04T17:02:42;5.97;;;3.00;;
64235;SDS011;50564;47.402;9.740;2023-06-04T17:07:45;4.88;;;3.20;;
64235;SDS011;50564;47.402;9.740;2023-06-04T17:12:46;3.22;;;2.50;;
64235;SDS011;50564;47.402;9.740;2023-06-04T17:17:47;3.25;;;2.42;;
64235;SDS011;50564;47.402;9.740;2023-06-04T17:22:48;5.95;;;3.83;;
64235;SDS011;50564;47.402;9.740;2023-06-04T17:27:49;5.45;;;3.10;;
64235;SDS011;50564;47.402;9.740;2023-06-04T17:32:51;5.57;;;3.53;;
64235;SDS011;50564;47.402;9.740;2023-06-04T17:37:51;4.45;;;2.90;;
64235;SDS011;50564;47.402;9.740;2023-06-04T17:42:52;6.55;;;3.28;;
64235;SDS011;50564;47.402;9.740;2023-06-04T17:47:52;6.05;;;3.40;;
64235;SDS011;50564;47.402;9.740;2023-06-04T17:52:53;4.55;;;2.70;;
64235;SDS011;50564;47.402;9.740;2023-06-04T17:57:53;4.28;;;3.10;;
64235;SDS011;50564;47.402;9.740;2023-06-04T18:02:55;6.18;;;3.58;;
64235;SDS011;50564;47.402;9.740;2023-06-04T18:07:56;4.07;;;3.28;;
64235;SDS011;50564;47.402;9.740;2023-06-04T18:12:56;5.07;;;2.90;;
64235;SDS011;50564;47.402;9.740;2023-06-04T18:17:57;4.95;;;3.33;;
64235;SDS011;50564;47.402;9.740;2023-06-04T18:22:58;7.38;;;3.90;;
64235;SDS011;50564;47.402;9.740;2023-06-04T18:27:58;4.55;;;3.53;;
64235;SDS011;50564;47.402;9.740;2023-06-04T18:32:59;8.05;;;4.57;;
64235;SDS011;50564;47.402;9.740;2023-06-04T18:37:59;7.63;;;4.20;;
64235;SDS011;50564;47.402;9.740;2023-06-04T18:43:00;5.93;;;3.58;;
64235;SDS011;50564;47.402;9.740;2023-06-04T18:48:00;4.97;;;3.00;;
64235;SDS011;50564;47.402;9.740;2023-06-04T18:53:01;5.53;;;3.20;;
64235;SDS011;50564;47.402;9.740;2023-06-04T18:58:02;6.13;;;3.10;;
64235;SDS011;50564;47.402;9.740;2023-06-04T19:03:02;8.30;;;3.53;;
64235;SDS011;50564;47.402;9.740;2023-06-04T19:08:03;5.07;;;3.63;;
64235;SDS011;50564;47.402;9.740;2023-06-04T19:13:04;6.90;;;3.92;;
64235;SDS011;50564;47.402;9.740;2023-06-04T19:18:05;6.70;;;3.90;;
64235;SDS011;50564;47.402;9.740;2023-06-04T19:23:06;9.48;;;5.20;;
64235;SDS011;50564;47.402;9.740;2023-06-04T19:28:07;9.85;;;4.45;;
64235;SDS011;50564;47.402;9.740;2023-06-04T19:33:09;10.43;;;4.95;;
64235;SDS011;50564;47.402;9.740;2023-06-04T19:38:10;7.68;;;4.82;;
64235;SDS011;50564;47.402;9.740;2023-06-04T19:43:10;10.05;;;4.72;;
64235;SDS011;50564;47.402;9.740;2023-06-04T19:48:11;7.97;;;5.22;;
64235;SDS011;50564;47.402;9.740;2023-06-04T19:53:12;8.02;;;4.22;;
64235;SDS011;50564;47.402;9.740;2023-06-04T19:58:12;7.50;;;5.20;;
64235;SDS011;50564;47.402;9.740;2023-06-04T20:03:14;8.48;;;5.10;;
64235;SDS011;50564;47.402;9.740;2023-06-04T20:08:15;6.28;;;4.43;;
64235;SDS011;50564;47.402;9.740;2023-06-04T20:13:17;6.97;;;4.72;;
64235;SDS011;50564;47.402;9.740;2023-06-04T20:18:17;6.35;;;4.40;;
64235;SDS011;50564;47.402;9.740;2023-06-04T20:23:19;7.55;;;4.68;;
64235;SDS011;50564;47.402;9.740;2023-06-04T20:28:20;7.82;;;4.28;;
64235;SDS011;50564;47.402;9.740;2023-06-04T20:33:21;7.88;;;4.50;;
64235;SDS011;50564;47.402;9.740;2023-06-04T20:38:22;7.20;;;3.85;;
64235;SDS011;50564;47.402;9.740;2023-06-04T20:43:23;7.25;;;4.30;;
64235;SDS011;50564;47.402;9.740;2023-06-04T20:48:23;5.80;;;4.20;;
64235;SDS011;50564;47.402;9.740;2023-06-04T20:53:24;5.70;;;3.90;;
64235;SDS011;50564;47.402;9.740;2023-06-04T20:58:25;5.35;;;3.95;;
64235;SDS011;50564;47.402;9.740;2023-06-04T21:03:26;7.45;;;4.15;;
64235;SDS011;50564;47.402;9.740;2023-06-04T21:08:27;7.07;;;4.47;;
64235;SDS011;50564;47.402;9.740;2023-06-04T21:13:28;7.90;;;5.15;;
64235;SDS011;50564;47.402;9.740;2023-06-04T21:18:29;6.30;;;4.35;;
64235;SDS011;50564;47.402;9.740;2023-06-04T21:23:29;5.97;;;4.15;;
64235;SDS011;50564;47.402;9.740;2023-06-04T21:28:30;6.82;;;4.72;;
64235;SDS011;50564;47.402;9.740;2023-06-04T21:33:30;7.13;;;3.85;;
64235;SDS011;50564;47.402;9.740;2023-06-04T21:38:31;8.48;;;4.47;;
64235;SDS011;50564;47.402;9.740;2023-06-04T21:43:32;7.38;;;4.45;;
64235;SDS011;50564;47.402;9.740;2023-06-04T21:48:32;7.45;;;4.53;;
64235;SDS011;50564;47.402;9.740;2023-06-04T21:53:33;6.47;;;4.38;;
64235;SDS011;50564;47.402;9.740;2023-06-04T21:58:33;7.10;;;4.00;;
64235;SDS011;50564;47.402;9.740;2023-06-04T22:03:34;6.95;;;4.25;;
64235;SDS011;50564;47.402;9.740;2023-06-04T22:08:34;5.97;;;4.63;;
64235;SDS011;50564;47.402;9.740;2023-06-04T22:13:35;6.78;;;4.40;;
64235;SDS011;50564;47.402;9.740;2023-06-04T22:18:37;6.63;;;4.22;;
64235;SDS011;50564;47.402;9.740;2023-06-04T22:23:37;6.53;;;4.55;;
64235;SDS011;50564;47.402;9.740;2023-06-04T22:28:38;5.03;;;3.88;;
64235;SDS011;50564;47.402;9.740;2023-06-04T22:33:38;9.25;;;5.03;;
64235;SDS011;50564;47.402;9.740;2023-06-04T22:38:39;6.03;;;4.07;;
64235;SDS011;50564;47.402;9.740;2023-06-04T22:43:40;5.28;;;4.05;;
64235;SDS011;50564;47.402;9.740;2023-06-04T22:48:40;6.72;;;4.50;;
64235;SDS011;50564;47.402;9.740;2023-06-04T22:53:41;6.53;;;4.10;;
64235;SDS011;50564;47.402;9.740;2023-06-04T22:58:42;5.65;;;4.38;;
64235;SDS011;50564;47.402;9.740;2023-06-04T23:03:42;7.22;;;4.28;;
64235;SDS011;50564;47.402;9.740;2023-06-04T23:08:44;6.38;;;4.25;;
64235;SDS011;50564;47.402;9.740;2023-06-04T23:13:46;6.05;;;3.90;;
64235;SDS011;50564;47.402;9.740;2023-06-04T23:18:47;8.50;;;4.68;;
64235;SDS011;50564;47.402;9.740;2023-06-04T23:23:47;7.28;;;4.85;;
64235;SDS011;50564;47.402;9.740;2023-06-04T23:28:48;7.00;;;4.30;;
64235;SDS011;50564;47.402;9.740;2023-06-04T23:33:49;6.07;;;4.32;;
64235;SDS011;50564;47.402;9.740;2023-06-04T23:38:49;6.97;;;4.30;;
64235;SDS011;50564;47.402;9.740;2023-06-04T23:43:50;6.65;;;3.88;;
64235;SDS011;50564;47.402;9.740;2023-06-04T23:48:51;4.72;;;3.80;;
64235;SDS011;50564;47.402;9.740;2023-06-04T23:53:51;5.68;;;3.80;;
64235;SDS011;50564;47.402;9.740;2023-06-04T23:58:52;5.57;;;3.85;;
